createdAt,value
2019-06-19T00:00:14.441Z,71.86
2019-06-19T00:02:43.144Z,72.08
2019-06-19T00:05:12.799Z,72.28
2019-06-19T00:07:42.542Z,72.38
2019-06-19T00:10:12.377Z,72.38
2019-06-19T00:12:39.003Z,72.29
2019-06-19T00:15:06.154Z,72.48
2019-06-19T00:17:33.570Z,72.57
2019-06-19T00:20:02.851Z,72.75
2019-06-19T00:22:30.131Z,72.83
2019-06-19T00:24:57.338Z,72.88
2019-06-19T00:27:24.408Z,72.88
2019-06-19T00:29:51.647Z,72.88
2019-06-19T00:32:20.634Z,73.02
2019-06-19T00:34:47.825Z,73.31
2019-06-19T00:37:15.047Z,73.26
2019-06-19T00:39:42.670Z,73.11
2019-06-19T00:42:10.871Z,73.07
2019-06-19T00:44:40.721Z,73.03
2019-06-19T00:47:07.842Z,72.92
2019-06-19T00:49:35.017Z,72.95
2019-06-19T00:52:02.327Z,72.92
2019-06-19T00:54:31.734Z,72.90
2019-06-19T00:57:01.497Z,72.98
2019-06-19T00:59:31.081Z,72.97
2019-06-19T01:02:00.834Z,72.91
2019-06-19T01:04:27.209Z,72.94
2019-06-19T01:06:54.604Z,72.98
2019-06-19T01:09:22.156Z,73.18
2019-06-19T01:11:51.501Z,73.34
2019-06-19T01:14:21.049Z,73.60
2019-06-19T01:16:47.958Z,73.93
2019-06-19T01:19:15.278Z,74.18
2019-06-19T01:21:42.942Z,74.42
2019-06-19T01:24:10.648Z,74.60
2019-06-19T01:26:40.504Z,74.86
2019-06-19T01:29:07.342Z,75.07
2019-06-19T01:31:34.722Z,75.28
2019-06-19T01:34:02.006Z,75.42
2019-06-19T01:36:31.313Z,75.57
2019-06-19T01:39:00.721Z,75.76
2019-06-19T01:41:28.295Z,75.87
2019-06-19T01:43:55.989Z,76.29
2019-06-19T01:46:23.447Z,76.30
2019-06-19T01:48:51.913Z,76.24
2019-06-19T01:51:20.732Z,76.24
2019-06-19T01:54:17.569Z,76.42
2019-06-19T01:56:45.742Z,76.20
2019-06-19T01:59:13.081Z,76.24
2019-06-19T02:01:41.167Z,76.33
2019-06-19T02:04:11.547Z,76.45
2019-06-19T02:06:37.886Z,76.73
2019-06-19T02:09:06.678Z,76.74
2019-06-19T02:11:33.913Z,76.75
2019-06-19T02:14:01.250Z,76.67
2019-06-19T02:16:31.131Z,76.60
2019-06-19T02:18:58.103Z,76.95
2019-06-19T02:21:25.406Z,76.95
2019-06-19T02:23:52.834Z,77.22
2019-06-19T02:26:21.245Z,77.26
2019-06-19T02:28:50.622Z,77.40
2019-06-19T02:31:21.887Z,77.47
2019-06-19T02:33:47.725Z,77.70
2019-06-19T02:36:15.235Z,77.97
2019-06-19T02:38:42.663Z,78.06
2019-06-19T02:41:10.673Z,78.31
2019-06-19T02:43:38.164Z,78.58
2019-06-19T02:46:05.760Z,78.89
2019-06-19T02:48:33.080Z,79.28
2019-06-19T02:51:00.471Z,79.64
2019-06-19T02:53:27.893Z,79.75
2019-06-19T02:55:55.710Z,79.82
2019-06-19T02:58:23.033Z,79.93
2019-06-19T03:00:50.356Z,79.97
2019-06-19T03:03:17.799Z,80.08
2019-06-19T03:05:45.080Z,79.46
2019-06-19T03:08:12.440Z,78.00
2019-06-19T03:10:39.783Z,77.32
2019-06-19T03:13:07.248Z,76.92
2019-06-19T03:15:34.716Z,76.67
2019-06-19T03:18:02.114Z,76.11
2019-06-19T03:20:29.404Z,75.87
2019-06-19T03:22:56.760Z,75.36
2019-06-19T03:25:24.244Z,75.43
2019-06-19T03:27:51.565Z,75.37
2019-06-19T03:30:19.582Z,75.34
2019-06-19T03:32:46.875Z,75.19
2019-06-19T03:35:14.387Z,75.06
2019-06-19T03:37:41.770Z,75.10
2019-06-19T03:40:09.939Z,74.55
2019-06-19T03:42:37.465Z,74.16
2019-06-19T03:45:04.982Z,74.14
2019-06-19T03:47:32.510Z,74.40
2019-06-19T03:49:59.944Z,74.46
2019-06-19T03:52:27.294Z,74.62
2019-06-19T03:54:54.946Z,74.79
2019-06-19T03:57:22.517Z,74.71
2019-06-19T03:59:50.203Z,74.64
2019-06-19T04:02:17.575Z,74.64
2019-06-19T04:04:45.136Z,74.53
2019-06-19T04:07:12.468Z,74.39
2019-06-19T04:09:39.835Z,74.01
2019-06-19T04:12:07.227Z,73.29
2019-06-19T04:14:34.594Z,72.17
2019-06-19T04:17:01.846Z,71.02
2019-06-19T04:19:29.179Z,70.09
2019-06-19T04:21:56.625Z,69.08
2019-06-19T04:24:23.911Z,67.92
2019-06-19T04:26:51.424Z,67.06
2019-06-19T04:29:21.813Z,65.81
2019-06-19T04:32:01.465Z,64.79
2019-06-19T04:34:18.464Z,63.93
2019-06-19T04:36:48.406Z,62.67
2019-06-19T04:39:15.937Z,58.62
2019-06-19T04:41:43.350Z,51.18
2019-06-19T04:44:10.765Z,45.11
2019-06-19T04:46:38.252Z,40.40
2019-06-19T04:49:05.866Z,37.58
2019-06-19T04:51:33.287Z,37.72
2019-06-19T04:54:00.622Z,39.44
2019-06-19T04:56:28.023Z,42.92
2019-06-19T04:58:55.520Z,46.02
2019-06-19T05:01:24.654Z,47.93
2019-06-19T05:03:52.048Z,49.65
2019-06-19T05:06:19.483Z,51.17
2019-06-19T05:08:48.764Z,52.47
2019-06-19T05:11:16.523Z,53.50
2019-06-19T05:13:43.913Z,54.03
2019-06-19T05:16:11.553Z,54.65
2019-06-19T05:18:38.781Z,54.87
2019-06-19T05:21:06.171Z,54.83
2019-06-19T05:23:34.047Z,54.38
2019-06-19T05:26:01.383Z,53.04
2019-06-19T05:28:28.859Z,50.71
2019-06-19T05:30:56.203Z,45.47
2019-06-19T05:33:23.555Z,42.29
2019-06-19T05:35:50.912Z,38.90
2019-06-19T05:38:18.187Z,36.73
2019-06-19T05:40:46.383Z,34.06
2019-06-19T05:43:13.683Z,31.86
2019-06-19T05:45:41.043Z,28.21
2019-06-19T05:48:08.278Z,24.34
2019-06-19T05:50:35.603Z,22.08
2019-06-19T05:53:03.729Z,19.71
2019-06-19T05:55:31.626Z,18.55
2019-06-19T05:57:59.092Z,17.87
2019-06-19T06:00:29.248Z,17.80
2019-06-19T06:02:56.654Z,17.42
2019-06-19T06:05:23.979Z,16.46
2019-06-19T06:07:51.494Z,15.23
2019-06-19T06:10:18.899Z,15.01
2019-06-19T06:12:46.464Z,14.69
2019-06-19T06:15:13.914Z,13.80
2019-06-19T06:17:41.224Z,13.08
2019-06-19T06:20:24.308Z,13.01
2019-06-19T06:22:51.687Z,12.54
2019-06-19T06:25:19.080Z,12.05
2019-06-19T06:27:46.535Z,11.77
2019-06-19T06:30:13.821Z,11.41
2019-06-19T06:32:41.148Z,10.86
2019-06-19T06:35:08.846Z,10.83
2019-06-19T06:37:36.193Z,10.67
2019-06-19T06:40:04.715Z,10.25
2019-06-19T06:42:32.111Z,9.87
2019-06-19T06:44:59.520Z,9.75
2019-06-19T06:47:26.817Z,9.58
2019-06-19T06:49:54.194Z,9.42
2019-06-19T06:52:21.431Z,9.03
2019-06-19T06:54:48.821Z,8.98
2019-06-19T06:57:16.203Z,8.93
2019-06-19T06:59:44.088Z,8.80
2019-06-19T07:02:12.897Z,8.37
2019-06-19T07:04:40.758Z,8.14
2019-06-19T07:07:08.021Z,8.43
2019-06-19T07:09:35.533Z,8.03
2019-06-19T07:12:03.077Z,8.07
2019-06-19T07:14:30.424Z,8.01
2019-06-19T07:16:58.181Z,7.76
2019-06-19T07:19:25.395Z,7.42
2019-06-19T07:21:52.738Z,7.59
2019-06-19T07:24:20.030Z,7.89
2019-06-19T07:26:52.878Z,7.80
2019-06-19T07:29:16.626Z,7.96
2019-06-19T07:31:43.958Z,8.10
2019-06-19T07:34:11.282Z,8.17
2019-06-19T07:36:38.601Z,8.25
2019-06-19T07:39:05.933Z,7.73
2019-06-19T07:41:33.533Z,7.57
2019-06-19T07:44:01.056Z,7.26
2019-06-19T07:46:28.486Z,7.44
2019-06-19T07:48:55.830Z,7.97
2019-06-19T07:51:23.190Z,8.13
2019-06-19T07:53:50.875Z,7.82
2019-06-19T07:56:18.423Z,7.18
2019-06-19T07:58:46.680Z,6.92
2019-06-19T08:01:14.215Z,7.05
2019-06-19T08:03:54.270Z,7.04
2019-06-19T08:06:10.972Z,7.08
2019-06-19T08:08:38.316Z,6.62
2019-06-19T08:11:05.714Z,6.80
2019-06-19T08:13:33.088Z,6.59
2019-06-19T08:16:00.434Z,6.40
2019-06-19T08:18:27.860Z,6.17
2019-06-19T08:20:55.035Z,5.93
2019-06-19T08:23:22.697Z,5.69
2019-06-19T08:25:50.968Z,5.41
2019-06-19T08:28:18.306Z,5.51
2019-06-19T08:30:45.674Z,5.82
2019-06-19T08:33:13.173Z,5.77
2019-06-19T08:35:40.361Z,5.58
2019-06-19T08:38:07.641Z,5.65
2019-06-19T08:40:34.985Z,5.66
2019-06-19T08:43:02.182Z,5.79
2019-06-19T08:45:29.630Z,5.20
2019-06-19T08:47:56.917Z,5.35
2019-06-19T08:50:24.172Z,5.62
2019-06-19T08:52:51.527Z,4.85
2019-06-19T08:55:19.272Z,5.22
2019-06-19T08:57:46.717Z,5.92
2019-06-19T09:00:19.972Z,5.76
2019-06-19T09:02:47.274Z,5.00
2019-06-19T09:05:14.919Z,4.97
2019-06-19T09:07:42.391Z,5.44
2019-06-19T09:10:16.277Z,5.86
2019-06-19T09:12:43.661Z,5.86
2019-06-19T09:15:11.378Z,6.20
2019-06-19T09:17:38.607Z,6.50
2019-06-19T09:20:06.026Z,6.78
2019-06-19T09:22:33.386Z,6.64
2019-06-19T09:25:01.190Z,6.60
2019-06-19T09:27:28.657Z,6.21
2019-06-19T09:29:56.345Z,6.55
2019-06-19T09:32:23.954Z,7.17
2019-06-19T09:34:51.672Z,7.45
2019-06-19T09:37:19.070Z,8.00
2019-06-19T09:39:46.614Z,8.26
2019-06-19T09:42:13.975Z,8.53
2019-06-19T09:44:41.698Z,8.35
2019-06-19T09:47:09.128Z,8.06
2019-06-19T09:49:36.510Z,8.52
2019-06-19T09:52:03.933Z,8.70
2019-06-19T09:54:31.261Z,8.26
2019-06-19T09:56:58.630Z,8.67
2019-06-19T09:59:26.040Z,9.25
2019-06-19T10:01:54.319Z,9.06
2019-06-19T10:04:21.711Z,9.80
2019-06-19T10:06:48.988Z,10.55
2019-06-19T10:09:16.437Z,11.34
2019-06-19T10:11:43.689Z,13.18
2019-06-19T10:14:11.087Z,14.66
2019-06-19T10:16:38.298Z,17.15
2019-06-19T10:19:05.651Z,19.02
2019-06-19T10:21:33.073Z,20.57
2019-06-19T10:24:00.435Z,21.28
2019-06-19T10:26:27.771Z,22.20
2019-06-19T10:28:56.022Z,23.37
2019-06-19T10:31:23.515Z,23.55
2019-06-19T10:33:50.982Z,24.08
2019-06-19T10:36:18.334Z,24.29
2019-06-19T10:38:45.681Z,24.33
2019-06-19T10:41:13.079Z,24.47
2019-06-19T10:43:40.407Z,24.50
2019-06-19T10:46:07.803Z,25.72
2019-06-19T10:48:35.131Z,25.04
2019-06-19T10:51:02.351Z,25.96
2019-06-19T10:53:29.650Z,25.58
2019-06-19T10:55:57.088Z,24.82
2019-06-19T10:58:24.329Z,25.00
2019-06-19T11:00:51.648Z,24.86
2019-06-19T11:03:19.902Z,24.56
2019-06-19T11:05:47.191Z,24.51
2019-06-19T11:08:14.587Z,24.51
2019-06-19T11:10:42.460Z,24.59
2019-06-19T11:13:09.953Z,23.92
2019-06-19T11:15:37.702Z,24.52
2019-06-19T11:18:05.071Z,24.81
2019-06-19T11:20:32.400Z,25.29
2019-06-19T11:22:59.788Z,25.10
2019-06-19T11:25:27.123Z,24.39
2019-06-19T11:27:54.497Z,24.40
2019-06-19T11:30:22.262Z,24.52
2019-06-19T11:32:49.540Z,24.81
2019-06-19T11:35:16.856Z,24.93
2019-06-19T11:37:44.521Z,25.53
2019-06-19T11:40:11.999Z,25.09
2019-06-19T11:42:39.481Z,24.68
2019-06-19T11:45:07.152Z,25.05
2019-06-19T11:47:34.897Z,24.81
2019-06-19T11:50:02.371Z,24.59
2019-06-19T11:52:29.969Z,24.62
2019-06-19T11:54:57.533Z,24.73
2019-06-19T11:57:25.023Z,24.76
2019-06-19T11:59:53.774Z,24.45
2019-06-19T12:02:21.317Z,24.03
2019-06-19T12:04:49.640Z,24.18
2019-06-19T12:07:17.454Z,24.20
2019-06-19T12:09:44.918Z,24.16
2019-06-19T12:12:12.257Z,24.05
2019-06-19T12:14:39.700Z,24.48
2019-06-19T12:17:07.044Z,23.66
2019-06-19T12:19:34.467Z,23.17
2019-06-19T12:22:01.728Z,23.59
2019-06-19T12:24:31.306Z,23.14
2019-06-19T12:26:58.491Z,23.14
2019-06-19T12:29:26.157Z,22.95
2019-06-19T12:31:53.498Z,22.67
2019-06-19T12:34:20.934Z,23.08
2019-06-19T12:36:48.330Z,22.18
2019-06-19T12:39:16.426Z,22.52
2019-06-19T12:41:43.960Z,22.66
2019-06-19T12:44:11.281Z,22.79
2019-06-19T12:46:38.901Z,22.54
2019-06-19T12:49:06.254Z,22.37
2019-06-19T12:51:33.696Z,22.33
2019-06-19T12:54:01.096Z,22.13
2019-06-19T12:56:28.508Z,22.47
2019-06-19T12:58:55.992Z,22.27
2019-06-19T13:01:23.525Z,21.71
2019-06-19T13:03:50.702Z,21.36
2019-06-19T13:06:18.439Z,19.98
2019-06-19T13:08:45.713Z,19.55
2019-06-19T13:11:12.971Z,20.15
2019-06-19T13:13:40.293Z,19.72
2019-06-19T13:16:10.280Z,20.73
2019-06-19T13:18:37.006Z,20.55
2019-06-19T13:21:04.387Z,20.56
2019-06-19T13:23:31.619Z,20.67
2019-06-19T13:25:58.973Z,19.98
2019-06-19T13:28:26.393Z,19.06
2019-06-19T13:30:53.761Z,19.39
2019-06-19T13:33:21.185Z,19.15
2019-06-19T13:35:48.286Z,19.53
2019-06-19T13:38:15.517Z,19.15
2019-06-19T13:40:42.978Z,19.24
2019-06-19T13:43:10.301Z,18.82
2019-06-19T13:45:37.403Z,18.38
2019-06-19T13:48:06.458Z,19.36
2019-06-19T13:50:33.869Z,19.85
2019-06-19T13:53:01.158Z,19.62
2019-06-19T13:55:28.437Z,20.00
2019-06-19T13:57:55.833Z,20.17
2019-06-19T14:00:23.267Z,20.15
2019-06-19T14:02:50.659Z,20.55
2019-06-19T14:05:18.315Z,20.04
2019-06-19T14:07:45.899Z,20.56
2019-06-19T14:10:13.428Z,20.90
2019-06-19T14:12:40.794Z,21.48
2019-06-19T14:15:08.601Z,21.11
2019-06-19T14:17:36.120Z,20.70
2019-06-19T14:20:04.171Z,21.44
2019-06-19T14:22:31.611Z,21.04
2019-06-19T14:24:59.009Z,21.46
2019-06-19T14:27:26.329Z,21.37
2019-06-19T14:29:53.572Z,21.80
2019-06-19T14:32:21.103Z,22.26
2019-06-19T14:34:48.298Z,22.09
2019-06-19T14:37:15.735Z,22.32
2019-06-19T14:39:42.974Z,22.91
2019-06-19T14:42:10.321Z,22.30
2019-06-19T14:44:39.886Z,22.50
2019-06-19T14:47:06.746Z,22.85
2019-06-19T14:49:34.015Z,23.35
2019-06-19T14:52:01.401Z,23.79
2019-06-19T14:54:28.623Z,24.06
2019-06-19T14:56:56.143Z,23.80
2019-06-19T14:59:23.383Z,24.68
2019-06-19T15:01:54.400Z,24.85
2019-06-19T15:04:20.093Z,24.79
2019-06-19T15:06:48.038Z,24.59
2019-06-19T15:09:15.122Z,24.26
2019-06-19T15:11:42.477Z,24.62
2019-06-19T15:14:09.608Z,24.72
2019-06-19T15:16:36.904Z,24.57
2019-06-19T15:19:04.157Z,24.78
2019-06-19T15:21:31.465Z,25.96
2019-06-19T15:23:58.726Z,26.23
2019-06-19T15:26:25.931Z,26.12
2019-06-19T15:28:53.182Z,26.05
2019-06-19T15:31:20.660Z,26.68
2019-06-19T15:33:47.838Z,27.06
2019-06-19T15:36:15.153Z,27.42
2019-06-19T15:38:42.491Z,27.87
2019-06-19T15:41:09.718Z,27.85
2019-06-19T15:43:36.948Z,27.89
2019-06-19T15:46:04.168Z,28.03
2019-06-19T15:48:31.378Z,28.23
2019-06-19T15:50:58.768Z,28.40
2019-06-19T15:53:26.148Z,28.56
2019-06-19T15:55:53.238Z,28.45
2019-06-19T15:58:20.930Z,28.39
2019-06-19T16:00:48.263Z,28.24
2019-06-19T16:03:15.863Z,27.88
2019-06-19T16:05:43.124Z,27.29
2019-06-19T16:08:10.354Z,26.88
2019-06-19T16:10:37.538Z,27.02
2019-06-19T16:13:05.086Z,26.81
2019-06-19T16:15:32.370Z,26.89
2019-06-19T16:17:59.452Z,27.08
2019-06-19T16:20:26.735Z,27.17
2019-06-19T16:22:53.998Z,27.16
2019-06-19T16:25:21.340Z,26.98
2019-06-19T16:27:48.684Z,27.65
2019-06-19T16:30:16.430Z,27.89
2019-06-19T16:32:43.712Z,28.05
2019-06-19T16:35:11.268Z,28.42
2019-06-19T16:37:38.986Z,28.08
2019-06-19T16:40:09.167Z,28.34
2019-06-19T16:42:36.545Z,28.06
2019-06-19T16:45:04.714Z,28.05
2019-06-19T16:47:32.285Z,28.06
2019-06-19T16:49:59.602Z,28.36
2019-06-19T16:52:27.173Z,27.63
2019-06-19T16:54:54.415Z,26.43
2019-06-19T16:57:21.627Z,26.56
2019-06-19T16:59:49.017Z,25.61
2019-06-19T17:02:16.177Z,25.71
2019-06-19T17:04:43.385Z,25.75
2019-06-19T17:07:10.541Z,25.33
2019-06-19T17:09:37.923Z,24.97
2019-06-19T17:12:05.277Z,25.48
2019-06-19T17:14:32.739Z,26.15
2019-06-19T17:17:00.362Z,26.22
2019-06-19T17:19:27.639Z,26.05
2019-06-19T17:21:54.873Z,26.31
2019-06-19T17:24:21.971Z,26.39
2019-06-19T17:26:49.187Z,26.64
2019-06-19T17:29:16.345Z,26.10
2019-06-19T17:31:43.549Z,26.12
2019-06-19T17:34:10.728Z,25.71
2019-06-19T17:36:37.943Z,25.73
2019-06-19T17:39:20.779Z,25.60
2019-06-19T17:41:35.959Z,25.89
2019-06-19T17:44:03.550Z,25.42
2019-06-19T17:46:30.741Z,24.88
2019-06-19T17:48:58.255Z,24.77
2019-06-19T17:51:25.653Z,24.92
2019-06-19T17:53:52.881Z,24.39
2019-06-19T17:56:20.386Z,23.89
2019-06-19T17:58:47.638Z,23.46
2019-06-19T18:01:14.892Z,23.32
2019-06-19T18:03:42.413Z,23.78
2019-06-19T18:06:09.723Z,24.49
2019-06-19T18:08:37.004Z,25.02
2019-06-19T18:11:04.314Z,25.60
2019-06-19T18:13:31.827Z,26.55
2019-06-19T18:15:59.032Z,26.64
2019-06-19T18:18:26.269Z,26.91
2019-06-19T18:20:53.331Z,27.09
2019-06-19T18:23:20.514Z,28.36
2019-06-19T18:25:47.894Z,28.87
2019-06-19T18:28:15.596Z,29.28
2019-06-19T18:30:42.967Z,29.83
2019-06-19T18:33:10.439Z,30.34
2019-06-19T18:35:37.845Z,31.25
2019-06-19T18:38:05.053Z,32.25
2019-06-19T18:40:32.349Z,32.69
2019-06-19T18:42:59.552Z,33.37
2019-06-19T18:45:27.032Z,33.68
2019-06-19T18:47:57.041Z,33.89
2019-06-19T18:50:23.511Z,34.55
2019-06-19T18:52:50.718Z,34.87
2019-06-19T18:55:17.947Z,34.96
2019-06-19T18:57:45.165Z,35.30
2019-06-19T19:00:14.016Z,35.46
2019-06-19T19:02:42.419Z,35.74
2019-06-19T19:05:10.607Z,35.94
2019-06-19T19:07:38.005Z,36.48
2019-06-19T19:10:12.587Z,36.89
2019-06-19T19:12:35.785Z,37.00
2019-06-19T19:15:03.640Z,37.08
2019-06-19T19:17:31.039Z,37.03
2019-06-19T19:19:58.358Z,36.70
2019-06-19T19:22:25.743Z,36.84
2019-06-19T19:24:53.323Z,37.24
2019-06-19T19:27:20.562Z,37.72
2019-06-19T19:29:47.793Z,37.87
2019-06-19T19:32:16.141Z,37.81
2019-06-19T19:34:43.565Z,38.13
2019-06-19T19:37:11.416Z,38.30
2019-06-19T19:39:39.018Z,38.33
2019-06-19T19:42:09.510Z,39.46
2019-06-19T19:44:37.197Z,39.18
2019-06-19T19:47:09.358Z,39.36
2019-06-19T19:49:36.566Z,39.37
2019-06-19T19:52:04.426Z,39.41
2019-06-19T19:54:32.108Z,39.29
2019-06-19T19:56:59.772Z,39.35
2019-06-19T19:59:27.195Z,40.03
2019-06-19T20:01:54.699Z,40.16
2019-06-19T20:04:22.071Z,40.11
2019-06-19T20:06:50.377Z,40.12
2019-06-19T20:09:17.875Z,40.48
2019-06-19T20:11:45.703Z,40.82
2019-06-19T20:14:12.930Z,40.85
2019-06-19T20:16:40.198Z,41.09
2019-06-19T20:19:07.409Z,41.85
2019-06-19T20:21:34.636Z,42.05
2019-06-19T20:24:02.392Z,42.60
2019-06-19T20:26:31.842Z,42.81
2019-06-19T20:28:59.376Z,42.79
2019-06-19T20:31:27.862Z,43.39
2019-06-19T20:33:55.097Z,43.63
2019-06-19T20:36:22.316Z,43.84
2019-06-19T20:38:49.594Z,44.68
2019-06-19T20:41:16.757Z,44.61
2019-06-19T20:43:44.125Z,45.03
2019-06-19T20:46:24.745Z,45.48
2019-06-19T20:48:40.801Z,46.00
2019-06-19T20:51:08.297Z,46.38
2019-06-19T20:53:35.580Z,46.54
2019-06-19T20:56:03.086Z,46.48
2019-06-19T20:58:30.635Z,46.74
2019-06-19T21:00:58.224Z,46.99
2019-06-19T21:03:25.463Z,46.97
2019-06-19T21:05:52.658Z,47.66
2019-06-19T21:08:29.481Z,47.70
2019-06-19T21:11:19.208Z,48.25
2019-06-19T21:13:33.141Z,48.29
2019-06-19T21:16:03.291Z,48.17
2019-06-19T21:18:29.956Z,48.35
2019-06-19T21:20:57.240Z,48.29
2019-06-19T21:23:25.019Z,48.44
2019-06-19T21:25:52.457Z,48.84
2019-06-19T21:30:46.531Z,48.30
2019-06-19T21:33:13.900Z,48.11
2019-06-19T21:35:41.158Z,47.84
2019-06-19T21:38:08.297Z,47.15
2019-06-19T21:40:35.592Z,47.21
2019-06-19T21:43:02.999Z,47.79
2019-06-19T21:45:30.668Z,47.65
2019-06-19T21:47:58.020Z,47.95
2019-06-19T21:50:25.141Z,48.33
2019-06-19T21:52:52.429Z,48.56
2019-06-19T21:55:19.950Z,48.95
2019-06-19T21:57:47.206Z,49.65
2019-06-19T22:00:18.674Z,49.53
2019-06-19T22:02:47.959Z,49.65
2019-06-19T22:05:15.632Z,49.65
2019-06-19T22:07:42.837Z,49.54
2019-06-19T22:10:11.722Z,49.17
2019-06-19T22:12:39.556Z,49.06
2019-06-19T22:15:08.684Z,48.73
2019-06-19T22:17:35.925Z,49.23
2019-06-19T22:20:03.825Z,49.28
2019-06-19T22:22:31.365Z,49.47
2019-06-19T22:24:58.810Z,49.86
2019-06-19T22:27:26.770Z,50.47
2019-06-19T22:29:54.123Z,50.26
2019-06-19T22:32:21.490Z,50.31
2019-06-19T22:34:48.662Z,50.60
2019-06-19T22:37:15.887Z,51.14
2019-06-19T22:39:43.408Z,51.27
2019-06-19T22:42:12.084Z,51.68
2019-06-19T22:44:39.573Z,51.81
2019-06-19T22:47:06.890Z,52.00
2019-06-19T22:49:34.245Z,51.89
2019-06-19T22:52:01.422Z,52.25
2019-06-19T22:54:29.228Z,52.07
2019-06-19T22:56:56.588Z,52.06
2019-06-19T22:59:23.745Z,51.90
2019-06-19T23:02:07.216Z,52.05
2019-06-19T23:04:34.779Z,52.09
2019-06-19T23:07:02.062Z,52.17
2019-06-19T23:09:29.335Z,52.27
2019-06-19T23:11:56.531Z,52.31
2019-06-19T23:14:23.803Z,52.33
2019-06-19T23:16:51.072Z,52.53
2019-06-19T23:19:18.250Z,52.80
2019-06-19T23:21:45.451Z,52.74
2019-06-19T23:24:13.213Z,52.63
2019-06-19T23:26:40.504Z,52.36
2019-06-19T23:29:07.706Z,52.29
2019-06-19T23:31:35.153Z,52.14
2019-06-19T23:34:02.627Z,52.10
2019-06-19T23:36:30.266Z,52.03
2019-06-19T23:38:57.808Z,52.08
2019-06-19T23:41:25.060Z,52.13
2019-06-19T23:43:52.284Z,52.26
2019-06-19T23:46:19.953Z,52.44
2019-06-19T23:48:47.158Z,52.72
2019-06-19T23:51:14.382Z,52.82
2019-06-19T23:53:41.572Z,53.29
2019-06-19T23:56:08.645Z,53.52
2019-06-19T23:58:35.826Z,54.24
